Waverly, New York
Current Conditions -  °F | °C
As of 12:39 AM on Sunday 26 Oct 2014 (Local Time) from KELM Reporting Station
Light Rain Light Rain  
Wind Chill: 52°   Ceiling: 6000
Heat Index: 52°   Visibility: 6mi
Dew Point: 44°   Wind: 9mph
Humidity: 74%   Direction: 310°NW
Pressure: 29.61"   Gusts: 26mph
Location:  42.01°N, 76.53°W
Report Text: KELM 260439Z AUTO 31008G23KT 6SM -RA SCT050 BKN060 BKN075 11/07 A2961 RMK AO2 WSHFT 0419 LTG DSNT NE AND E RAB30 P0001 T01110067
Loading
Personal Weather Stations






























Interactive Weather Map
Tropical Storm Tracking
New forecast layout! Learn more

10-Day Weather Forecast

Advertisements
Track Severe Weather on mobile